Latest Coastal Weather Observations for Cape Sorell

IDT60701

Issued at 12:15 pm EDT Sunday 26 October 2014 (issued every 10 minutes, with the page automatically refreshed every 10 minutes)

About coastal observations | Map of coastal stations | Coastal observations for TAS | Marine services | Other Formats
Station Details ID: 097000 Name: CAPE SORELL Lat: -42.20 Lon: 145.17 Height: 19.3 m
Data from the previous 72 hours. | See also: Recent months at Cape Sorell
Date/Time
EDT
Temp

°C
Wind Pressure Rain
since 9am
mm
Weather Cloud Vis
km
Sea
Height
m
Swell
Dir
 
Speed
knots
Gust
knots
hPa Trend Height
m
Period
s
Dir
26/12:00pm 14.4 WNW 6 9 1012.6 - 0.0 - - - - - - -
26/11:30am 16.3 WNW 7 9 1012.8 - 0.0 - - - - - - -
26/11:00am 14.2 NNW 5 7 1012.9 - 0.0 - - - - - - -
26/10:30am 14.8 NNW 4 6 1012.8 - 0.0 - - - - - - -
26/10:00am 13.9 NNW 4 5 1012.8 - 0.0 - - - - - - -
26/09:30am 13.2 WNW 5 6 1012.9 - 0.0 - - - - - - -
26/09:00am 12.8 WNW 3 5 1012.9 - 0.0 - - - - - - -
26/08:30am 12.4 N 4 5 1013.0 - 0.0 - - - - - - -
26/08:00am 12.3 NNW 3 4 1013.1 - 0.0 - - - - - - -
26/07:30am 12.0 N 4 6 1012.9 - 0.0 - - - - - - -
26/07:00am 11.9 NE 6 8 1012.8 - 0.0 - - - - - - -
26/06:30am 11.9 NE 5 6 1012.7 - 0.0 - - - - - - -
26/06:00am 11.9 N 3 4 1012.8 - 0.0 - - - - - - -
26/05:30am 11.8 N 3 4 1013.0 - 0.0 - - - - - - -
26/05:00am 11.7 NNE 1 3 1012.9 - 0.0 - - - - - - -
26/04:30am 11.7 NNE 4 6 1012.8 - 0.0 - - - - - - -
26/04:00am 11.5 CALM 0 0 1012.9 - 0.0 - - - - - - -
26/03:30am 11.6 CALM 0 4 1013.2 - 0.0 - - - - - - -
26/03:00am 11.3 ENE 4 5 1013.5 - 0.0 - - - - - - -
26/02:30am 10.9 ESE 3 4 1013.9 - 0.0 - - - - - - -
26/02:00am 10.6 SE 3 5 1014.2 - 0.0 - - - - - - -
26/01:30am 11.3 SSE 6 8 1014.1 - 0.0 - - - - - - -
26/01:00am 11.5 SSE 6 9 1015.3 - 0.0 - - - - - - -
26/12:30am 11.5 SE 6 9 1015.3 - 0.0 - - - - - - -
26/12:00am 12.0 S 11 14 1015.9 - 0.0 - - - - - - -
 
Date/Time
EDT
Temp

°C
Wind Pressure Rain
since 9am
mm
Weather Cloud Vis
km
Sea
Height
m
Swell
Dir
 
Speed
knots
Gust
knots
hPa Trend Height
m
Period
s
Dir
25/11:30pm 12.1 S 16 19 1016.4 - 0.0 - - - - - - -
25/11:00pm 12.1 SSW 17 20 1016.4 - 0.0 - - - - - - -
25/10:30pm 11.9 SSW 13 15 1016.2 - 0.0 - - - - - - -
25/10:00pm 11.6 S 6 7 1015.8 - 0.0 - - - - - - -
25/09:30pm 11.5 S 5 7 1015.7 - 0.0 - - - - - - -
25/09:00pm 11.5 SSE 8 12 1015.5 - 0.0 - - - - - - -
25/08:30pm 11.7 S 10 12 1015.7 - 0.0 - - - - - - -
25/08:00pm 11.4 SSE 10 13 1015.4 - 0.0 - - - - - - -
25/07:30pm 11.9 S 15 20 1015.4 - 0.0 - - - - - - -
25/07:00pm 12.2 S 21 25 1015.1 - 0.0 - - - - - - -
25/06:30pm 12.6 S 23 27 1015.1 - 0.0 - - - - - - -
25/06:00pm 13.1 S 23 28 1015.3 - 0.0 - - - - - - -
25/05:30pm 13.7 S 23 26 1015.2 - 0.0 - - - - - - -
25/05:00pm 13.9 S 20 24 1015.0 - 0.0 - - - - - - -
25/04:30pm 14.1 S 18 21 1014.9 - 0.0 - - - - - - -
25/04:00pm 14.4 SSW 19 22 1015.4 - 0.0 - - - - - - -
25/03:30pm 14.4 SSW 17 20 1015.7 - 0.0 - - - - - - -
25/03:00pm 14.7 SSW 16 18 1016.0 - 0.0 - - - - - - -
25/02:30pm 15.0 SSW 15 16 1016.6 - 0.0 - - - - - - -
25/02:00pm 14.6 SSW 13 15 1016.7 - 0.0 - - - - - - -
25/01:30pm 15.0 SSW 12 14 1016.7 - 0.0 - - - - - - -
25/01:00pm 15.4 SSW 11 13 1016.8 - 0.0 - - - - - - -
25/12:30pm 15.1 SSW 11 13 1017.1 - 0.0 - - - - - - -
25/12:00pm 14.7 SSW 11 13 1017.4 - 0.0 - - - - - - -
25/11:30am 13.9 SSW 12 13 1017.5 - 0.0 - - - - - - -
25/11:00am 14.0 SSW 13 15 1017.8 - 0.0 - - - - - - -
25/10:30am 13.9 SSW 13 16 1017.4 - 0.0 - - - - - - -
25/10:00am 13.4 S 12 14 1017.2 - 0.0 - - - - - - -
25/09:30am 12.7 S 12 14 1017.1 - 0.0 - - - - - - -
25/09:00am 12.2 SSW 14 16 1016.8 - 0.0 - - - - - - -
25/08:30am 12.2 SSW 12 14 1016.5 - 0.0 - - - - - - -
25/08:00am 12.0 SSW 14 16 1016.3 - 0.0 - - - - - - -
25/07:30am 12.3 SSW 11 14 1015.8 - 0.0 - - - - - - -
25/07:00am 12.7 SSW 13 15 1015.4 - 0.0 - - - - - - -
25/06:30am 12.7 SSW 12 15 1014.7 - 0.0 - - - - - - -
25/06:00am 12.6 SW 13 15 1014.1 - 0.0 - - - - - - -
25/05:30am 12.7 SSW 14 15 1013.9 - 0.0 - - - - - - -
25/05:00am 12.6 SSW 14 16 1013.7 - 0.0 - - - - - - -
25/04:30am 12.5 SSW 17 20 1013.3 - 0.0 - - - - - - -
25/04:00am 12.8 SSW 17 19 1013.1 - 0.0 - - - - - - -
25/03:30am 12.8 SW 16 17 1013.1 - 0.0 - - - - - - -
25/03:00am 12.9 SW 15 18 1012.7 - 0.0 - - - - - - -
25/02:30am 13.1 WSW 12 15 1012.6 - 0.0 - - - - - - -
25/02:00am 13.1 WSW 11 13 1012.5 - 0.0 - - - - - - -
25/01:30am 13.2 WSW 12 15 1012.5 - 0.0 - - - - - - -
25/01:00am 13.2 WSW 12 14 1012.6 - 0.0 - - - - - - -
25/12:30am 13.1 WSW 13 15 1012.4 - 0.0 - - - - - - -
25/12:00am 13.2 WSW 15 19 1012.1 - 0.0 - - - - - - -
 
Date/Time
EDT
Temp

°C
Wind Pressure Rain
since 9am
mm
Weather Cloud Vis
km
Sea
Height
m
Swell
Dir
 
Speed
knots
Gust
knots
hPa Trend Height
m
Period
s
Dir
24/11:30pm 13.5 WSW 12 16 1011.9 - 0.0 - - - - - - -
24/11:00pm 13.7 W 12 17 1011.3 - 0.0 - - - - - - -
24/10:30pm 13.8 WNW 14 18 1010.9 - 0.0 - - - - - - -
24/10:00pm 13.7 WNW 20 24 1010.4 - 0.0 - - - - - - -
24/09:30pm 14.4 NW 14 19 1010.4 - 0.0 - - - - - - -
24/09:00pm 14.8 N 13 16 1009.6 - 0.0 - - - - - - -
24/08:30pm 15.0 NNW 5 9 1009.8 - 0.0 - - - - - - -
24/08:00pm 14.5 WSW 2 4 1009.7 - 0.0 - - - - - - -
24/07:30pm 14.6 SW 5 7 1009.5 - 0.0 - - - - - - -
24/07:00pm 15.0 SW 8 10 1009.1 - 0.0 - - - - - - -
24/06:30pm 15.7 WSW 7 8 1008.3 - 0.0 - - - - - - -
24/06:00pm 16.8 N 2 3 1007.7 - 0.0 - - - - - - -
24/05:30pm 16.8 NE 5 7 1007.7 - 0.0 - - - - - - -
24/05:00pm 16.7 ESE 3 7 1007.5 - 0.0 - - - - - - -
24/04:30pm 14.4 S 11 12 1008.7 - 0.0 - - - - - - -
24/04:00pm 14.5 SSW 13 15 1009.4 - 0.0 - - - - - - -
24/03:30pm 14.8 S 12 14 1009.2 - 0.0 - - - - - - -
24/03:00pm 15.6 SSW 11 13 1009.2 - 0.0 - - - - - - -
24/02:30pm 15.5 SSW 11 13 1009.3 - 0.0 - - - - - - -
24/02:00pm 16.9 S 11 14 1009.4 - 0.0 - - - - - - -
24/01:30pm 18.2 SSW 9 11 1009.6 - 0.0 - - - - - - -
24/01:00pm 16.8 S 5 7 1009.7 - 0.0 - - - - - - -
24/12:30pm 16.9 S 6 9 1010.3 - 0.0 - - - - - - -
24/12:00pm 16.2 S 7 9 1011.2 - 0.0 - - - - - - -
24/11:30am 16.6 S 9 10 1012.0 - 0.0 - - - - - - -
24/11:00am 18.2 SE 8 12 1012.6 - 0.0 - - - - - - -
24/10:30am 16.5 SSE 7 9 1013.3 - 0.0 - - - - - - -
24/10:00am 15.1 SE 6 9 1013.9 - 0.0 - - - - - - -
24/09:30am 14.7 SSE 7 9 1013.8 - 0.0 - - - - - - -
24/09:00am 14.7 SE 8 11 1014.2 - 0.0 - - - - - - -
24/08:30am 13.3 ESE 9 13 1014.6 - 0.0 - - - - - - -
24/08:00am 12.7 ESE 7 8 1015.2 - 0.0 - - - - - - -
24/07:30am 12.1 ESE 7 9 1015.4 - 0.0 - - - - - - -
24/07:00am 10.6 E 6 7 1015.7 - 0.0 - - - - - - -
24/06:30am 10.1 NE 3 4 1016.2 - 0.0 - - - - - - -
24/06:00am 11.0 N 4 5 1016.5 - 0.0 - - - - - - -
24/05:30am 10.8 NE 4 5 1016.5 - 0.0 - - - - - - -
24/05:00am 11.1 E 8 10 1016.2 - 0.0 - - - - - - -
24/04:30am 10.6 E 9 11 1016.3 - 0.0 - - - - - - -
24/04:00am 10.0 E 9 10 1017.0 - 0.0 - - - - - - -
24/03:30am 10.0 ENE 8 9 1017.7 - 0.0 - - - - - - -
24/03:00am 11.8 NNE 6 7 1018.5 - 0.0 - - - - - - -
24/02:30am 12.0 N 8 10 1019.2 - 0.0 - - - - - - -
24/02:00am 12.1 N 6 8 1019.5 - 0.0 - - - - - - -
24/01:30am 12.3 NNE 4 5 1019.8 - 0.0 - - - - - - -
24/01:00am 12.3 NNE 6 8 1020.2 - 0.0 - - - - - - -
24/12:30am 12.7 NNE 4 5 1020.5 - 0.0 - - - - - - -
24/12:00am 12.7 NNE 3 4 1020.9 - 0.0 - - - - - - -
 
Date/Time
EDT
Temp

°C
Wind Pressure Rain
since 9am
mm
Weather Cloud Vis
km
Sea
Height
m
Swell
Dir
 
Speed
knots
Gust
knots
hPa Trend Height
m
Period
s
Dir
23/11:30pm 12.5 N 3 4 1021.1 - 0.0 - - - - - - -
23/11:00pm 12.1 NNE 3 4 1021.3 - 0.0 - - - - - - -
23/10:30pm 12.7 NW 2 3 1021.5 - 0.0 - - - - - - -
23/10:00pm 12.9 NW 1 2 1021.4 - 0.0 - - - - - - -
23/09:30pm 13.1 NW 2 3 1021.5 - 0.0 - - - - - - -
23/09:00pm 13.2 WSW 1 3 1021.4 - 0.0 - - - - - - -
23/08:30pm 13.2 NNW 2 2 1021.3 - 0.0 - - - - - - -
23/08:00pm 13.6 S 1 2 1021.2 - 0.0 - - - - - - -
23/07:30pm 14.3 S 1 2 1021.0 - 0.0 - - - - - - -
23/07:00pm 14.8 S 4 5 1020.9 - 0.0 - - - - - - -
23/06:30pm 15.0 S 7 9 1021.0 - 0.0 - - - - - - -
23/06:00pm 15.1 S 9 13 1021.1 - 0.0 - - - - - - -
23/05:30pm 14.2 S 13 16 1020.9 - 0.0 - - - - - - -
23/05:00pm 14.4 S 14 17 1020.9 - 0.0 - - - - - - -
23/04:30pm 15.3 S 14 17 1020.7 - 0.0 - - - - - - -
23/04:00pm 15.7 S 14 16 1020.8 - 0.0 - - - - - - -
23/03:30pm 15.8 S 13 16 1020.7 - 0.0 - - - - - - -
23/03:00pm 15.6 S 15 18 1020.6 - 0.0 - - - - - - -
23/02:30pm 15.7 S 14 17 1020.7 - 0.0 - - - - - - -
23/02:00pm 15.6 S 14 18 1020.8 - 0.0 - - - - - - -
23/01:30pm 15.4 S 15 19 1020.9 - 0.0 - - - - - - -
23/01:00pm 15.0 S 17 22 1021.0 - 0.0 - - - - - - -
23/12:30pm 14.7 S 18 22 1021.0 - 0.0 - - - - - - -

Other Formats:

Comma delimited format used in spreadsheet applications
http://www.bom.gov.au/fwo/IDT60701/IDT60701.94974.axf

JavaScript Object Notation format (JSON) in row-major order
http://www.bom.gov.au/fwo/IDT60701/IDT60701.94974.json